KPRC/PRC METAR and TAF weather

Enter ICAO airport designator
Station Type Date Time Source
KPRC METAR 2022/12/10 00:53 UTC NOAA

KPRC 100053Z VRB03KT 10SM CLR 08/M09 A3008 RMK AO2 SLP178 T00831094


Station Type Date Time Source
KPRC Decoded METAR 2022/12/10 00:53 UTC NOAA

PRESCOTT LOVE FIELD, AZ, United States (KPRC) 34-39N 112-25W 1524M
Dec 09, 2022 - 07:53 PM EST / 2022.12.10 0053 UTC
Wind: Variable at 3 MPH (3 KT):0
Visibility: 10 mile(s):0
Sky conditions: clear
Temperature: 46.9 F (8.3 C)
Dew Point: 15.1 F (-9.4 C)
Relative Humidity: 27%
Pressure (altimeter): 30.08 in. Hg (1018 hPa)
ob: KPRC 100053Z VRB03KT 10SM CLR 08/M09 A3008 RMK AO2 SLP178 T00831094
cycle: 1

Station Type Date Time Source
KPRC TAF 2022/12/09 18:22 UTC NOAA

TAF KPRC 091720Z 0918/1018 VRB05KT P6SM FEW250

Example: see airport list